sensor_id;sensor_type;location;lat;lon;timestamp;temperature;humidity
76104;HTU21D;64831;44.870;37.336;2023-02-03T20:56:33;4.47;83.84
76104;HTU21D;64831;44.870;37.336;2023-02-03T20:58:59;4.48;83.26
76104;HTU21D;64831;44.870;37.336;2023-02-03T21:01:26;4.50;82.92
76104;HTU21D;64831;44.870;37.336;2023-02-03T21:03:52;4.54;82.57
76104;HTU21D;64831;44.870;37.336;2023-02-03T21:06:36;4.58;82.31
76104;HTU21D;64831;44.870;37.336;2023-02-03T21:09:17;4.60;81.86
76104;HTU21D;64831;44.870;37.336;2023-02-03T21:11:44;4.56;81.55
76104;HTU21D;64831;44.870;37.336;2023-02-03T21:14:27;4.64;81.32
76104;HTU21D;64831;44.870;37.336;2023-02-03T21:16:54;4.63;81.22
76104;HTU21D;64831;44.870;37.336;2023-02-03T21:19:27;4.63;80.88
76104;HTU21D;64831;44.870;37.336;2023-02-03T21:21:54;4.61;80.30
76104;HTU21D;64831;44.870;37.336;2023-02-03T21:24:34;4.60;79.96
76104;HTU21D;64831;44.870;37.336;2023-02-03T21:27:28;4.59;79.71
76104;HTU21D;64831;44.870;37.336;2023-02-03T21:29:56;4.61;79.95
76104;HTU21D;64831;44.870;37.336;2023-02-03T21:32:24;4.60;80.20
76104;HTU21D;64831;44.870;37.336;2023-02-03T21:34:50;4.54;80.11
76104;HTU21D;64831;44.870;37.336;2023-02-03T21:39:45;4.54;80.08
76104;HTU21D;64831;44.870;37.336;2023-02-03T21:42:30;4.56;80.04
76104;HTU21D;64831;44.870;37.336;2023-02-03T21:47:49;4.51;80.30
76104;HTU21D;64831;44.870;37.336;2023-02-03T21:50:44;4.54;80.38
76104;HTU21D;64831;44.870;37.336;2023-02-03T21:55:38;4.57;80.35
76104;HTU21D;64831;44.870;37.336;2023-02-03T21:58:25;4.59;80.38
76104;HTU21D;64831;44.870;37.336;2023-02-03T22:00:56;4.60;80.46
76104;HTU21D;64831;44.870;37.336;2023-02-03T22:03:34;4.60;80.62
76104;HTU21D;64831;44.870;37.336;2023-02-03T22:08:35;4.67;80.66
76104;HTU21D;64831;44.870;37.336;2023-02-03T22:11:02;4.71;80.62
76104;HTU21D;64831;44.870;37.336;2023-02-03T22:13:28;4.69;80.50
76104;HTU21D;64831;44.870;37.336;2023-02-03T22:15:55;4.73;80.31
76104;HTU21D;64831;44.870;37.336;2023-02-03T22:18:21;4.71;80.15
76104;HTU21D;64831;44.870;37.336;2023-02-03T22:20:47;4.76;80.01
76104;HTU21D;64831;44.870;37.336;2023-02-03T22:23:13;4.76;79.66
76104;HTU21D;64831;44.870;37.336;2023-02-03T22:25:38;4.75;79.36
76104;HTU21D;64831;44.870;37.336;2023-02-03T22:28:05;4.77;79.22
76104;HTU21D;64831;44.870;37.336;2023-02-03T22:30:31;4.79;79.13
76104;HTU21D;64831;44.870;37.336;2023-02-03T22:32:57;4.80;79.02
76104;HTU21D;64831;44.870;37.336;2023-02-03T22:35:24;4.80;78.94
76104;HTU21D;64831;44.870;37.336;2023-02-03T22:37:50;4.77;78.91
76104;HTU21D;64831;44.870;37.336;2023-02-03T22:40:19;4.78;78.91
76104;HTU21D;64831;44.870;37.336;2023-02-03T22:42:45;4.77;78.98
76104;HTU21D;64831;44.870;37.336;2023-02-03T22:45:11;4.77;79.21
76104;HTU21D;64831;44.870;37.336;2023-02-03T22:47:37;4.74;79.35
76104;HTU21D;64831;44.870;37.336;2023-02-03T22:50:04;4.77;79.24
76104;HTU21D;64831;44.870;37.336;2023-02-03T22:52:30;4.79;79.25
76104;HTU21D;64831;44.870;37.336;2023-02-03T22:54:56;4.80;79.09
76104;HTU21D;64831;44.870;37.336;2023-02-03T22:57:23;4.82;79.03
76104;HTU21D;64831;44.870;37.336;2023-02-03T22:59:49;4.84;78.98
76104;HTU21D;64831;44.870;37.336;2023-02-03T23:02:15;4.88;78.92
76104;HTU21D;64831;44.870;37.336;2023-02-03T23:04:41;4.87;78.82
76104;HTU21D;64831;44.870;37.336;2023-02-03T23:07:07;4.84;78.52
76104;HTU21D;64831;44.870;37.336;2023-02-03T23:09:33;4.84;78.27
76104;HTU21D;64831;44.870;37.336;2023-02-03T23:11:59;4.87;78.14
76104;HTU21D;64831;44.870;37.336;2023-02-03T23:14:25;4.86;77.75
76104;HTU21D;64831;44.870;37.336;2023-02-03T23:16:51;4.86;77.75
76104;HTU21D;64831;44.870;37.336;2023-02-03T23:19:17;4.84;77.66
76104;HTU21D;64831;44.870;37.336;2023-02-03T23:21:43;4.78;77.15
76104;HTU21D;64831;44.870;37.336;2023-02-03T23:24:09;4.69;76.94
76104;HTU21D;64831;44.870;37.336;2023-02-03T23:26:34;4.68;76.92
76104;HTU21D;64831;44.870;37.336;2023-02-03T23:29:00;4.68;77.03
76104;HTU21D;64831;44.870;37.336;2023-02-03T23:31:26;4.66;76.77
76104;HTU21D;64831;44.870;37.336;2023-02-03T23:33:52;4.65;76.68
76104;HTU21D;64831;44.870;37.336;2023-02-03T23:36:37;4.63;76.70
76104;HTU21D;64831;44.870;37.336;2023-02-03T23:39:03;4.61;76.57
76104;HTU21D;64831;44.870;37.336;2023-02-03T23:41:29;4.60;76.65
76104;HTU21D;64831;44.870;37.336;2023-02-03T23:43:54;4.54;76.50
76104;HTU21D;64831;44.870;37.336;2023-02-03T23:46:20;4.50;76.51
76104;HTU21D;64831;44.870;37.336;2023-02-03T23:48:46;4.49;76.65
76104;HTU21D;64831;44.870;37.336;2023-02-03T23:51:12;4.46;76.59
76104;HTU21D;64831;44.870;37.336;2023-02-03T23:53:38;4.46;76.63
76104;HTU21D;64831;44.870;37.336;2023-02-03T23:56:04;4.44;76.57
76104;HTU21D;64831;44.870;37.336;2023-02-03T23:58:30;4.42;76.56
